Time;durP1;ratioP1;P1;durP2;ratioP2;P2;SDS_P1;SDS_P2;PMS_P1;PMS_P2;Temp;Humidity;BMP_temperature;BMP_pressure;BME280_temperature;BME280_humidity;BME280_pressure;Samples;Min_cycle;Max_cycle;Signal;HPM_P1;HPM_P2
2023/06/09 00:05:20;;;;;;;6.95;3.05;;;11.00;99.90;;;;;;5114017;28;20520;-90
2023/06/09 00:08:04;;;;;;;11.23;3.67;;;11.00;99.90;;;;;;5110612;28;20517;-93
2023/06/09 00:14:41;;;;;;;10.80;2.95;;;11.10;99.90;;;;;;5042427;28;20048;-92
2023/06/09 00:17:18;;;;;;;9.73;2.67;;;11.10;99.90;;;;;;5058822;28;20082;-90
2023/06/09 00:20:08;;;;;;;10.55;3.28;;;11.10;99.90;;;;;;5096166;28;20052;-93
2023/06/09 00:22:55;;;;;;;8.63;2.78;;;11.20;99.90;;;;;;5094672;28;20083;-91
2023/06/09 00:29:30;;;;;;;9.68;2.67;;;11.20;99.90;;;;;;5109823;28;20077;-91
2023/06/09 00:32:14;;;;;;;11.02;2.42;;;11.20;99.90;;;;;;5097025;28;20048;-93
2023/06/09 00:35:08;;;;;;;7.55;2.60;;;11.20;99.90;;;;;;5117562;28;20442;-92
2023/06/09 00:38:01;;;;;;;6.22;2.30;;;11.20;99.90;;;;;;5100757;28;20055;-90
2023/06/09 00:40:51;;;;;;;6.20;2.17;;;11.20;99.90;;;;;;5117273;28;20051;-93
2023/06/09 00:43:38;;;;;;;7.60;1.90;;;11.20;99.90;;;;;;5072999;28;20073;-90
2023/06/09 00:46:36;;;;;;;;;;;;;;;;;;;;;
2023/06/09 01:08:22;;;;;;;5.00;2.08;;;11.10;99.90;;;;;;5121078;28;20111;-93
2023/06/09 01:11:28;;;;;;;9.73;2.50;;;11.10;99.90;;;;;;5116886;28;20047;-92
2023/06/09 01:14:40;;;;;;;4.43;2.45;;;11.00;99.90;;;;;;5115723;28;20059;-93
2023/06/09 01:17:32;;;;;;;5.88;2.33;;;10.90;99.90;;;;;;5116482;28;20047;-93
2023/06/09 01:20:25;;;;;;;;;;;;;;;;;;;;;
2023/06/09 01:24:04;;;;;;;8.95;2.75;;;10.90;99.90;;;;;;5116511;28;20058;-91
2023/06/09 01:41:40;;;;;;;5.72;1.92;;;10.90;99.90;;;;;;5108038;28;20074;-93
2023/06/09 01:44:34;;;;;;;3.58;1.95;;;10.80;99.90;;;;;;5103961;28;20066;-93
2023/06/09 01:47:21;;;;;;;;;;;10.80;99.90;;;;;;5095868;28;20039;-92
2023/06/09 01:50:26;;;;;;;;;;;;;;;;;;;;;
2023/06/09 01:53:21;;;;;;;6.70;2.17;;;10.80;99.90;;;;;;5094084;28;20052;-92
2023/06/09 01:56:04;;;;;;;8.68;2.78;;;10.60;99.90;;;;;;5061015;28;20102;-94
2023/06/09 01:59:02;;;;;;;10.35;2.67;;;10.80;99.90;;;;;;5095361;28;20044;-94
2023/06/09 03:07:21;;;;;;;9.98;3.78;;;10.80;99.90;;;;;;5070270;28;20524;-89
2023/06/09 03:09:55;;;;;;;11.10;3.47;;;10.90;99.90;;;;;;5059685;28;20044;-88
2023/06/09 03:12:35;;;;;;;;;;;10.90;99.90;;;;;;5073832;28;20080;-86
2023/06/09 03:15:24;;;;;;;5.85;2.55;;;10.90;99.90;;;;;;5072744;28;19928;-88
2023/06/09 03:18:04;;;;;;;7.25;2.88;;;10.90;99.90;;;;;;5072814;28;20059;-90
2023/06/09 03:21:04;;;;;;;7.57;2.53;;;10.90;99.90;;;;;;5073699;28;20226;-92
2023/06/09 03:23:44;;;;;;;7.38;2.42;;;10.90;99.90;;;;;;5073784;28;20040;-89
2023/06/09 03:26:26;;;;;;;9.38;3.05;;;10.90;99.90;;;;;;5072674;28;20048;-92
2023/06/09 03:29:12;;;;;;;7.13;2.60;;;10.90;99.90;;;;;;5073191;28;20528;-89
2023/06/09 03:31:57;;;;;;;6.53;2.60;;;10.90;99.90;;;;;;5038527;28;20051;-92
2023/06/09 03:34:40;;;;;;;10.02;4.18;;;10.90;99.90;;;;;;5073589;28;20278;-94
2023/06/09 03:37:20;;;;;;;5.90;3.35;;;10.80;99.90;;;;;;5072960;28;20511;-89
2023/06/09 03:39:59;;;;;;;6.70;2.60;;;10.80;99.90;;;;;;5072868;28;20036;-92
2023/06/09 03:42:49;;;;;;;10.15;3.90;;;10.90;99.90;;;;;;5073881;28;20041;-92
2023/06/09 03:45:36;;;;;;;13.88;3.30;;;10.90;99.90;;;;;;5073701;28;20055;-90
2023/06/09 03:48:14;;;;;;;5.45;2.40;;;10.90;99.90;;;;;;5073315;28;20048;-88
2023/06/09 03:51:19;;;;;;;8.98;3.80;;;10.90;99.90;;;;;;5073751;28;20198;-93
2023/06/09 03:54:04;;;;;;;7.82;3.20;;;10.90;99.90;;;;;;5072632;28;20036;-88
2023/06/09 03:56:51;;;;;;;9.52;2.90;;;11.00;99.90;;;;;;5073959;28;20052;-91
2023/06/09 03:59:25;;;;;;;11.73;3.58;;;11.00;99.90;;;;;;5072541;28;20133;-86
2023/06/09 04:01:58;;;;;;;5.70;2.80;;;11.10;99.90;;;;;;5073233;28;20127;-87
2023/06/09 04:04:35;;;;;;;6.65;2.55;;;11.10;99.90;;;;;;5072890;28;20048;-87
2023/06/09 04:07:17;;;;;;;7.63;2.80;;;11.20;99.90;;;;;;5056469;28;20040;-88
2023/06/09 05:05:08;;;;;;;11.13;3.42;;;12.70;99.90;;;;;;5093214;28;20097;-92
2023/06/09 05:07:46;;;;;;;10.50;3.33;;;12.80;99.90;;;;;;5075782;28;20036;-91
2023/06/09 05:10:17;;;;;;;12.50;2.80;;;12.90;99.90;;;;;;5058455;28;20362;-91
2023/06/09 05:13:12;;;;;;;11.55;2.75;;;13.00;99.90;;;;;;5075921;28;20750;-89
2023/06/09 05:15:48;;;;;;;9.97;2.80;;;13.10;99.90;;;;;;5057617;28;20132;-88
2023/06/09 05:18:45;;;;;;;12.07;3.92;;;13.10;99.90;;;;;;5074746;28;20288;-94
2023/06/09 05:21:30;;;;;;;11.55;3.42;;;13.30;99.90;;;;;;5056941;28;20048;-89
2023/06/09 05:24:15;;;;;;;11.07;2.92;;;13.30;99.90;;;;;;5058641;28;20389;-88
2023/06/09 05:26:48;;;;;;;7.85;2.67;;;13.40;99.90;;;;;;5037668;28;20569;-88
2023/06/09 05:29:38;;;;;;;7.55;3.05;;;13.50;99.90;;;;;;5055348;28;20072;-87
2023/06/09 05:32:17;;;;;;;8.20;2.80;;;13.50;99.90;;;;;;5037581;28;20575;-86
2023/06/09 05:35:08;;;;;;;;;;;;;;;;;;;;;
2023/06/09 05:37:59;;;;;;;7.57;2.80;;;13.60;99.90;;;;;;5050023;28;20127;-88
2023/06/09 05:40:38;;;;;;;9.75;3.47;;;13.80;99.90;;;;;;5057251;28;20059;-87
2023/06/09 05:43:27;;;;;;;7.88;2.30;;;13.80;99.90;;;;;;5074529;28;20505;-86
2023/06/09 06:43:24;;;;;;;6.82;1.90;;;15.70;99.90;;;;;;5051212;28;20132;-85
2023/06/09 06:45:50;;;;;;;5.88;2.25;;;16.00;99.90;;;;;;5073943;28;20048;-84
2023/06/09 06:48:18;;;;;;;13.43;2.67;;;16.10;99.90;;;;;;5056235;28;20047;-85
2023/06/09 06:50:45;;;;;;;7.85;2.10;;;16.10;99.90;;;;;;5056098;28;20106;-83
2023/06/09 06:53:19;;;;;;;13.27;3.08;;;16.20;99.90;;;;;;5073716;28;20047;-86
2023/06/09 06:56:08;;;;;;;;;;;;;;;;;;;;;
2023/06/09 06:58:49;;;;;;;12.82;2.17;;;16.40;99.90;;;;;;5015070;28;20053;-80
2023/06/09 07:08:51;;;;;;;6.55;2.30;;;16.90;99.90;;;;;;5031868;28;20077;-86
2023/06/09 07:11:32;;;;;;;5.90;2.13;;;17.10;99.90;;;;;;5031620;28;20042;-85
2023/06/09 07:14:11;;;;;;;7.82;2.47;;;17.40;99.90;;;;;;5031091;28;20076;-85
2023/06/09 07:16:55;;;;;;;10.93;2.60;;;17.30;99.90;;;;;;5019118;28;20491;-85
2023/06/09 07:19:28;;;;;;;11.10;1.80;;;17.40;99.90;;;;;;4996245;28;20431;-85
2023/06/09 07:22:14;;;;;;;7.10;1.90;;;17.40;99.90;;;;;;5012560;28;20057;-85
2023/06/09 07:24:59;;;;;;;12.57;2.60;;;17.60;99.90;;;;;;5012079;28;20402;-85
2023/06/09 07:42:24;;;;;;;7.65;2.47;;;18.40;99.90;;;;;;5040179;28;20072;-83
2023/06/09 07:44:56;;;;;;;6.10;2.60;;;18.60;99.90;;;;;;5050127;28;20059;-85
2023/06/09 07:47:33;;;;;;;7.40;1.95;;;18.70;99.90;;;;;;5073190;28;20077;-84
2023/06/09 07:50:17;;;;;;;13.45;2.85;;;18.80;99.90;;;;;;5092858;28;20519;-83
2023/06/09 07:52:59;;;;;;;5.85;2.30;;;18.90;99.90;;;;;;5092809;28;20492;-83
2023/06/09 07:55:43;;;;;;;7.13;2.20;;;19.00;99.90;;;;;;5058920;28;20044;-85
2023/06/09 07:58:31;;;;;;;7.00;2.13;;;19.20;99.90;;;;;;5091974;28;20111;-84
2023/06/09 08:04:58;;;;;;;7.63;2.28;;;19.20;99.90;;;;;;5093333;28;20070;-83
2023/06/09 08:07:34;;;;;;;5.55;2.10;;;19.50;99.90;;;;;;5092505;28;20048;-84
2023/06/09 08:10:13;;;;;;;10.80;2.65;;;19.70;99.90;;;;;;5092460;28;20544;-83
2023/06/09 08:12:52;;;;;;;9.25;2.53;;;19.70;99.90;;;;;;5090788;28;20048;-83
2023/06/09 08:15:40;;;;;;;;;;;;;;;;;;;;;
2023/06/09 08:18:28;;;;;;;6.30;1.90;;;19.90;99.90;;;;;;5074782;28;20063;-85
2023/06/09 08:21:08;;;;;;;5.30;2.40;;;20.30;99.90;;;;;;5075254;28;20121;-85
2023/06/09 08:23:45;;;;;;;7.85;2.00;;;20.40;99.90;;;;;;5092035;28;20076;-86
2023/06/09 08:30:13;;;;;;;;;;;;;;;;;;;;;
2023/06/09 08:33:04;;;;;;;5.05;2.00;;;20.80;99.90;;;;;;5086164;28;20036;-86
2023/06/09 08:36:02;;;;;;;9.65;3.22;;;21.00;99.90;;;;;;5072494;28;20056;-88
2023/06/09 08:38:42;;;;;;;8.25;1.85;;;21.10;99.90;;;;;;5054688;28;20076;-89
2023/06/09 08:41:37;;;;;;;;;;;;;;;;;;;;;
2023/06/09 09:02:07;;;;;;;9.38;2.10;;;22.20;99.90;;;;;;5096377;28;20109;-85
2023/06/09 09:04:42;;;;;;;5.15;1.88;;;22.60;99.90;;;;;;5077938;28;20052;-84
2023/06/09 09:07:21;;;;;;;7.75;1.95;;;22.70;99.90;;;;;;5099961;28;20044;-85
2023/06/09 09:10:13;;;;;;;5.55;1.95;;;22.80;99.90;;;;;;5116582;28;20051;-86
2023/06/09 09:12:55;;;;;;;3.58;1.58;;;22.70;99.90;;;;;;5115322;28;20047;-85
2023/06/09 09:15:44;;;;;;;8.95;2.55;;;22.70;99.90;;;;;;5098215;28;20058;-85
2023/06/09 09:18:32;;;;;;;11.15;2.17;;;22.80;99.90;;;;;;5111548;28;20122;-84
2023/06/09 09:21:12;;;;;;;7.78;2.08;;;23.00;99.90;;;;;;5115661;28;20125;-84
2023/06/09 09:24:12;;;;;;;6.30;1.67;;;23.10;99.90;;;;;;5116014;28;21011;-87
2023/06/09 09:26:58;;;;;;;6.68;1.98;;;23.20;99.90;;;;;;5115929;28;20093;-84
2023/06/09 09:29:43;;;;;;;7.05;2.03;;;23.40;99.90;;;;;;5114907;28;20488;-84
2023/06/09 09:32:26;;;;;;;7.53;2.65;;;23.60;99.90;;;;;;5113693;28;20070;-86
2023/06/09 09:35:20;;;;;;;4.15;1.63;;;23.60;99.90;;;;;;5115636;28;20086;-87
2023/06/09 09:38:18;;;;;;;5.15;2.10;;;23.80;99.90;;;;;;5115559;28;20100;-91
2023/06/09 09:40:50;;;;;;;10.23;1.70;;;23.90;99.90;;;;;;5102947;28;20118;-86
2023/06/09 09:43:26;;;;;;;4.55;2.22;;;24.00;99.90;;;;;;5096632;28;20509;-86
2023/06/09 09:45:55;;;;;;;5.53;2.20;;;24.20;99.90;;;;;;5102244;28;20522;-87
2023/06/09 09:48:24;;;;;;;8.05;2.28;;;24.20;99.90;;;;;;5077214;28;20438;-86
2023/06/09 09:50:52;;;;;;;4.13;1.75;;;24.30;99.90;;;;;;5096202;28;20408;-85
2023/06/09 09:53:34;;;;;;;6.95;2.50;;;24.40;99.90;;;;;;5076604;28;20115;-88
2023/06/09 09:56:27;;;;;;;5.40;2.10;;;24.40;99.90;;;;;;5094796;28;20105;-88
2023/06/09 09:59:10;;;;;;;4.38;1.60;;;24.60;99.90;;;;;;5094695;28;20419;-89
2023/06/09 10:01:47;;;;;;;5.47;1.75;;;24.70;99.70;;;;;;5076705;28;20044;-87
2023/06/09 10:05:18;;;;;;;6.10;1.92;;;24.80;99.90;;;;;;5094555;28;20044;-87
2023/06/09 10:08:07;;;;;;;4.70;1.20;;;24.90;99.90;;;;;;5094572;28;20111;-88
2023/06/09 10:10:47;;;;;;;6.18;2.47;;;25.10;99.90;;;;;;5094522;28;20408;-87
2023/06/09 10:13:21;;;;;;;7.55;1.80;;;25.20;99.90;;;;;;5093302;28;20059;-86
2023/06/09 10:16:05;;;;;;;5.13;2.10;;;25.30;99.00;;;;;;5093076;28;20059;-87
2023/06/09 10:18:43;;;;;;;5.85;1.58;;;25.30;98.00;;;;;;5092206;28;20048;-87
2023/06/09 10:21:26;;;;;;;4.57;1.63;;;25.40;99.40;;;;;;5093591;28;20052;-85
2023/06/09 10:24:08;;;;;;;7.20;2.10;;;25.60;99.10;;;;;;5077662;28;20048;-89
2023/06/09 10:37:45;;;;;;;3.20;1.65;;;26.40;97.40;;;;;;5107251;28;20506;-84
2023/06/09 10:40:42;;;;;;;4.85;1.35;;;26.40;96.10;;;;;;5094287;28;20047;-91
2023/06/09 10:43:35;;;;;;;5.53;2.20;;;26.50;96.50;;;;;;5097453;28;20471;-89
2023/06/09 10:46:02;;;;;;;3.83;1.60;;;26.60;95.70;;;;;;5097357;28;20055;-91
2023/06/09 10:48:49;;;;;;;4.90;1.45;;;26.60;95.80;;;;;;5093284;28;20505;-89
2023/06/09 10:51:27;;;;;;;3.00;1.30;;;26.80;96.00;;;;;;5091470;28;20104;-88
2023/06/09 10:54:19;;;;;;;5.43;1.60;;;26.70;94.10;;;;;;5093440;28;20445;-89
2023/06/09 10:57:00;;;;;;;4.95;1.80;;;26.90;94.50;;;;;;5107501;28;20056;-89
2023/06/09 10:59:31;;;;;;;3.55;1.42;;;26.90;94.40;;;;;;5111904;28;20039;-87
2023/06/09 11:02:15;;;;;;;4.43;1.88;;;26.90;94.20;;;;;;5112231;28;20096;-88
2023/06/09 11:04:52;;;;;;;5.43;1.83;;;27.10;94.40;;;;;;5097636;28;20050;-86
2023/06/09 11:07:32;;;;;;;7.45;2.13;;;27.00;92.80;;;;;;5075183;28;20047;-84
2023/06/09 11:10:13;;;;;;;5.57;1.90;;;27.00;93.70;;;;;;5093980;28;20040;-87
2023/06/09 11:13:05;;;;;;;;;;;;;;;;;;;;;
2023/06/09 11:16:01;;;;;;;6.20;1.95;;;27.30;92.60;;;;;;5093403;28;20039;-88
2023/06/09 11:44:43;;;;;;;6.03;1.80;;;28.10;91.80;;;;;;5081130;28;20147;-83
2023/06/09 11:47:25;;;;;;;5.40;1.90;;;28.30;91.00;;;;;;5072449;28;20086;-87
2023/06/09 11:50:10;;;;;;;4.22;1.70;;;28.30;90.80;;;;;;5072715;28;20041;-82
2023/06/09 11:52:49;;;;;;;7.30;1.75;;;28.00;90.00;;;;;;5072154;28;20106;-85
2023/06/09 11:55:31;;;;;;;4.78;1.65;;;28.20;90.90;;;;;;5054748;28;20120;-88
2023/06/09 11:58:30;;;;;;;4.55;2.13;;;28.30;90.70;;;;;;5072394;28;20076;-89
2023/06/09 12:08:36;;;;;;;5.10;1.60;;;28.60;94.60;;;;;;5073266;28;20063;-86
2023/06/09 12:11:28;;;;;;;4.57;1.60;;;28.80;91.20;;;;;;5072243;28;20071;-86
2023/06/09 12:14:11;;;;;;;8.68;1.52;;;29.10;93.70;;;;;;5054412;28;20374;-87
2023/06/09 12:16:54;;;;;;;7.05;2.13;;;28.60;94.00;;;;;;5072994;28;20036;-89
2023/06/09 12:19:36;;;;;;;6.13;1.60;;;28.50;94.70;;;;;;5072558;28;20052;-90
2023/06/09 12:22:12;;;;;;;9.50;2.00;;;28.20;94.80;;;;;;5071225;28;20044;-91
2023/06/09 12:24:45;;;;;;;8.73;2.53;;;28.30;94.00;;;;;;5054358;28;20040;-92
2023/06/09 12:27:38;;;;;;;4.05;1.58;;;27.90;96.00;;;;;;5072569;28;20040;-89
2023/06/09 12:30:29;;;;;;;7.22;2.63;;;27.70;97.00;;;;;;5057179;28;20150;-90
2023/06/09 12:33:21;;;;;;;5.55;1.50;;;27.90;96.40;;;;;;5075203;28;20049;-89
2023/06/09 12:35:55;;;;;;;4.10;1.77;;;27.80;96.30;;;;;;5073783;28;20127;-87
2023/06/09 12:38:39;;;;;;;9.10;2.17;;;27.40;96.60;;;;;;5084978;28;20032;-92
2023/06/09 12:41:28;;;;;;;8.38;1.60;;;27.30;96.40;;;;;;5096306;28;20054;-87
2023/06/09 12:44:28;;;;;;;7.75;2.00;;;27.50;96.60;;;;;;5096791;28;20071;-92
2023/06/09 12:47:24;;;;;;;5.88;1.60;;;27.50;97.20;;;;;;5095719;28;20056;-91
2023/06/09 12:50:14;;;;;;;6.13;1.55;;;27.50;97.10;;;;;;5061936;28;20079;-91
2023/06/09 12:52:54;;;;;;;5.75;1.70;;;27.50;97.60;;;;;;5078274;28;20054;-91
2023/06/09 12:55:32;;;;;;;5.13;1.58;;;27.50;97.50;;;;;;5078238;28;20591;-89
2023/06/09 12:58:14;;;;;;;4.68;1.90;;;27.50;98.30;;;;;;5094823;28;20419;-88
2023/06/09 13:00:48;;;;;;;2.78;1.58;;;27.70;98.40;;;;;;5077958;28;20048;-92
2023/06/09 13:03:37;;;;;;;7.25;2.17;;;27.70;97.40;;;;;;5095921;28;20047;-91
2023/06/09 13:06:18;;;;;;;8.50;2.42;;;27.40;97.20;;;;;;5077971;28;20097;-91
2023/06/09 13:09:00;;;;;;;6.88;2.38;;;27.20;98.40;;;;;;5077326;28;20051;-92
2023/06/09 13:11:43;;;;;;;5.90;1.83;;;27.40;97.70;;;;;;5070255;28;20507;-91
2023/06/09 13:14:18;;;;;;;5.00;1.38;;;27.50;98.30;;;;;;5095685;28;20052;-90
2023/06/09 13:16:59;;;;;;;5.30;2.20;;;27.90;99.50;;;;;;5095937;28;20386;-89
2023/06/09 13:19:36;;;;;;;;;;;27.90;97.50;;;;;;5094835;28;20290;-90
2023/06/09 13:22:26;;;;;;;6.43;2.45;;;27.80;98.60;;;;;;5075538;28;19926;-90
2023/06/09 13:25:04;;;;;;;3.97;1.30;;;27.60;97.80;;;;;;5076725;28;20492;-90
2023/06/09 13:35:17;;;;;;;6.57;2.15;;;27.70;99.30;;;;;;5095468;28;20092;-90
2023/06/09 13:37:52;;;;;;;6.53;2.10;;;27.60;99.20;;;;;;5095357;28;20043;-91
2023/06/09 13:40:30;;;;;;;5.78;1.80;;;27.40;99.70;;;;;;5093937;28;20100;-91
2023/06/09 13:43:12;;;;;;;6.60;2.38;;;27.60;99.90;;;;;;5089950;28;20367;-89
2023/06/09 13:46:00;;;;;;;5.50;2.20;;;27.60;98.80;;;;;;5094905;28;20094;-87
2023/06/09 13:48:52;;;;;;;5.75;2.42;;;27.50;99.10;;;;;;5087513;28;20052;-86
2023/06/09 13:51:34;;;;;;;7.82;2.33;;;27.40;99.10;;;;;;5094003;28;20052;-86
2023/06/09 13:54:24;;;;;;;4.40;1.92;;;27.30;99.10;;;;;;5095043;28;20119;-85
2023/06/09 13:57:04;;;;;;;3.70;1.42;;;27.20;99.70;;;;;;5093677;28;20085;-82
2023/06/09 13:59:40;;;;;;;4.53;1.90;;;27.50;99.60;;;;;;5081698;28;20055;-87
2023/06/09 14:02:24;;;;;;;4.80;1.83;;;27.50;98.90;;;;;;5095316;28;20051;-86
2023/06/09 14:05:02;;;;;;;5.45;2.20;;;27.40;98.20;;;;;;5094772;28;20447;-88
2023/06/09 14:07:35;;;;;;;5.90;2.40;;;27.20;98.60;;;;;;5076631;28;20528;-88
2023/06/09 14:10:14;;;;;;;5.68;1.67;;;27.10;98.60;;;;;;5077018;28;20118;-84
2023/06/09 14:13:00;;;;;;;8.63;2.47;;;27.40;99.20;;;;;;5094634;28;20496;-86
2023/06/09 14:15:49;;;;;;;3.22;1.40;;;27.20;98.70;;;;;;5100395;28;20082;-86
2023/06/09 14:18:33;;;;;;;4.65;1.45;;;27.40;99.60;;;;;;5114912;28;20055;-87
2023/06/09 14:21:15;;;;;;;8.65;2.08;;;27.20;98.40;;;;;;5095795;28;20450;-84
2023/06/09 14:23:44;;;;;;;5.82;2.15;;;26.90;99.00;;;;;;5096377;28;20047;-87
2023/06/09 14:26:24;;;;;;;6.47;1.98;;;27.10;98.10;;;;;;5111532;28;20047;-85
2023/06/09 14:29:10;;;;;;;5.15;1.30;;;26.90;98.70;;;;;;5096006;28;20048;-92
2023/06/09 14:31:57;;;;;;;5.00;1.92;;;27.30;98.70;;;;;;5114634;28;20044;-86
2023/06/09 14:34:35;;;;;;;2.35;1.20;;;27.20;97.70;;;;;;5096352;28;20416;-87
2023/06/09 14:40:57;;;;;;;3.15;1.58;;;27.70;97.00;;;;;;5110259;28;20136;-92
2023/06/09 14:43:23;;;;;;;3.40;1.85;;;27.80;96.10;;;;;;5104443;28;20039;-87
2023/06/09 14:46:01;;;;;;;4.55;2.15;;;28.00;94.80;;;;;;5114220;28;20088;-87
2023/06/09 14:48:45;;;;;;;2.83;1.30;;;27.90;95.10;;;;;;5113297;28;20119;-86
2023/06/09 14:51:30;;;;;;;3.92;1.48;;;27.90;94.90;;;;;;5114345;28;20052;-88
2023/06/09 14:54:10;;;;;;;4.32;1.50;;;28.00;94.40;;;;;;5114072;28;20040;-89
2023/06/09 14:56:58;;;;;;;4.15;1.48;;;27.70;93.70;;;;;;5115378;28;20054;-90
2023/06/09 14:59:44;;;;;;;4.85;1.50;;;27.60;92.60;;;;;;5104355;28;20044;-86
2023/06/09 15:09:40;;;;;;;3.83;1.25;;;27.70;92.90;;;;;;5113328;28;20055;-86
2023/06/09 15:12:18;;;;;;;5.43;1.80;;;27.60;93.30;;;;;;5111704;28;20093;-89
2023/06/09 15:14:48;;;;;;;3.60;1.27;;;27.50;93.30;;;;;;5093139;28;20056;-87
2023/06/09 15:17:19;;;;;;;9.63;1.95;;;27.60;92.80;;;;;;5098593;28;20044;-87
2023/06/09 15:19:49;;;;;;;6.32;1.80;;;27.40;93.70;;;;;;5094225;28;20047;-88
2023/06/09 15:22:16;;;;;;;4.03;1.50;;;27.20;92.80;;;;;;5091620;28;20488;-90
2023/06/09 15:24:46;;;;;;;3.28;1.67;;;27.20;94.30;;;;;;5112349;28;20036;-89
2023/06/09 15:27:16;;;;;;;3.70;1.63;;;27.20;93.50;;;;;;5113360;28;20381;-87
2023/06/09 15:29:45;;;;;;;4.00;1.50;;;27.50;93.20;;;;;;5112372;28;20051;-88
2023/06/09 15:32:16;;;;;;;3.78;1.50;;;27.50;93.40;;;;;;5095299;28;20047;-90
2023/06/09 15:34:46;;;;;;;3.97;1.60;;;27.40;92.70;;;;;;5079509;28;20042;-89
2023/06/09 15:37:16;;;;;;;4.80;1.50;;;27.50;93.30;;;;;;5094633;28;20062;-88
2023/06/09 15:39:42;;;;;;;6.45;1.70;;;27.60;92.20;;;;;;5078750;28;20040;-84
2023/06/09 15:42:10;;;;;;;3.22;1.55;;;27.60;93.60;;;;;;5112813;28;20036;-83
2023/06/09 15:44:38;;;;;;;4.88;1.40;;;27.60;91.70;;;;;;5108858;28;20122;-87
2023/06/09 15:47:12;;;;;;;5.50;1.52;;;27.50;92.50;;;;;;5104416;28;20097;-85
2023/06/09 15:53:38;;;;;;;5.22;1.80;;;27.60;92.50;;;;;;5100545;28;20063;-86
2023/06/09 15:56:13;;;;;;;4.00;2.00;;;27.50;93.00;;;;;;5111614;28;20031;-85
2023/06/09 15:58:41;;;;;;;6.47;2.15;;;27.60;92.50;;;;;;5113396;28;20035;-85
2023/06/09 16:01:10;;;;;;;6.13;1.25;;;27.40;92.90;;;;;;5113165;28;20430;-83
2023/06/09 16:03:39;;;;;;;3.33;1.63;;;27.40;92.90;;;;;;5108696;28;20074;-89
2023/06/09 16:06:05;;;;;;;3.80;2.10;;;27.30;92.30;;;;;;5058583;28;20048;-87
2023/06/09 16:08:43;;;;;;;2.90;1.40;;;27.10;92.80;;;;;;5092559;28;20036;-89
2023/06/09 16:11:26;;;;;;;4.97;1.98;;;26.90;93.30;;;;;;5092429;28;20040;-86
2023/06/09 16:43:37;;;;;;;4.22;2.15;;;25.80;95.10;;;;;;5074699;28;20052;-87
2023/06/09 16:46:12;;;;;;;8.68;2.65;;;25.70;95.50;;;;;;5087010;28;20059;-87
2023/06/09 16:48:49;;;;;;;4.78;2.10;;;25.60;96.10;;;;;;5072007;28;20374;-86
2023/06/09 16:51:29;;;;;;;5.22;2.05;;;25.60;95.90;;;;;;5080651;28;20040;-86
2023/06/09 16:54:04;;;;;;;5.32;2.47;;;25.50;95.80;;;;;;5074111;28;20058;-88
2023/06/09 16:56:43;;;;;;;5.13;2.38;;;25.40;96.40;;;;;;5091147;28;20107;-88
2023/06/09 16:59:21;;;;;;;6.60;2.35;;;25.30;96.00;;;;;;5081710;28;20076;-87
2023/06/09 17:02:14;;;;;;;8.35;2.53;;;25.20;96.80;;;;;;5078943;28;20048;-88
2023/06/09 17:04:51;;;;;;;6.47;1.60;;;25.20;96.70;;;;;;5093163;28;20052;-89
2023/06/09 17:07:33;;;;;;;5.07;1.90;;;25.00;97.10;;;;;;5083114;28;20078;-86
2023/06/09 17:10:12;;;;;;;4.75;1.80;;;24.90;97.10;;;;;;5047621;28;20051;-85
2023/06/09 17:12:49;;;;;;;5.38;1.75;;;24.70;97.00;;;;;;5091338;28;20068;-86
2023/06/09 17:15:33;;;;;;;6.95;2.30;;;24.70;97.10;;;;;;5088160;28;20114;-89
2023/06/09 17:18:14;;;;;;;6.43;2.30;;;24.40;97.50;;;;;;5075404;28;20143;-87
2023/06/09 17:20:45;;;;;;;6.07;1.73;;;24.30;97.40;;;;;;5075423;28;20124;-87
2023/06/09 18:07:31;;;;;;;8.00;3.15;;;22.00;99.90;;;;;;5079685;28;20132;-86
2023/06/09 18:10:02;;;;;;;6.72;2.10;;;21.90;99.90;;;;;;5075188;28;20508;-86
2023/06/09 18:12:28;;;;;;;6.35;2.22;;;21.90;99.90;;;;;;5057446;28;20044;-86
2023/06/09 18:14:54;;;;;;;6.70;2.13;;;21.80;99.90;;;;;;5074102;28;20120;-86
2023/06/09 18:17:23;;;;;;;7.63;2.45;;;21.80;99.90;;;;;;5074435;28;20036;-85
2023/06/09 18:19:58;;;;;;;6.82;2.00;;;21.70;99.90;;;;;;5042909;28;20554;-85
2023/06/09 18:22:34;;;;;;;5.93;1.90;;;21.70;99.90;;;;;;5094481;28;20437;-85
2023/06/09 18:25:12;;;;;;;6.93;2.22;;;21.70;99.90;;;;;;5094622;28;20035;-85
2023/06/09 18:27:54;;;;;;;4.70;2.15;;;21.60;99.90;;;;;;5112520;28;20387;-87
2023/06/09 18:30:36;;;;;;;6.90;2.95;;;21.60;99.90;;;;;;5104273;28;20040;-84
2023/06/09 18:33:19;;;;;;;4.85;2.17;;;21.30;99.90;;;;;;5093586;28;20067;-83
2023/06/09 18:36:05;;;;;;;6.82;2.30;;;21.20;99.90;;;;;;5098379;28;20036;-84
2023/06/09 18:38:44;;;;;;;9.80;2.20;;;21.10;99.90;;;;;;5094041;28;20052;-84
2023/06/09 18:41:30;;;;;;;7.80;2.35;;;21.00;99.90;;;;;;5093686;28;20588;-85
2023/06/09 18:44:24;;;;;;;5.35;2.22;;;20.80;99.90;;;;;;5094029;28;20056;-84
2023/06/09 18:47:01;;;;;;;7.13;2.20;;;20.70;99.90;;;;;;5079426;28;20039;-84
2023/06/09 18:53:35;;;;;;;8.00;2.30;;;20.50;99.90;;;;;;5114212;28;20038;-84
2023/06/09 18:59:53;;;;;;;7.82;2.25;;;20.20;99.90;;;;;;5093829;28;20034;-87
2023/06/09 19:02:33;;;;;;;9.70;2.38;;;20.10;99.90;;;;;;5079532;28;20040;-93
2023/06/09 19:05:02;;;;;;;14.50;3.00;;;19.90;99.90;;;;;;5093555;28;20435;-85
2023/06/09 19:07:29;;;;;;;6.25;2.35;;;19.90;99.90;;;;;;5113670;28;20892;-87
2023/06/09 19:09:55;;;;;;;6.70;2.25;;;19.90;99.90;;;;;;5095775;28;20055;-87
2023/06/09 19:12:22;;;;;;;5.80;2.13;;;19.80;99.90;;;;;;5095949;28;20441;-88
2023/06/09 19:14:48;;;;;;;8.75;2.25;;;19.70;99.90;;;;;;5078888;28;20452;-86
2023/06/09 19:17:14;;;;;;;5.95;2.15;;;19.60;99.90;;;;;;5099411;28;20082;-85
2023/06/09 19:19:41;;;;;;;5.60;2.13;;;19.60;99.90;;;;;;5095065;28;20496;-86
2023/06/09 19:22:07;;;;;;;6.38;2.00;;;19.50;99.90;;;;;;5095095;28;20095;-87
2023/06/09 19:24:34;;;;;;;6.53;1.77;;;19.40;99.90;;;;;;5094836;28;20039;-87
2023/06/09 19:27:01;;;;;;;7.80;2.22;;;19.40;99.90;;;;;;5113044;28;20169;-85
2023/06/09 19:29:29;;;;;;;5.75;2.10;;;19.30;99.90;;;;;;5111158;28;20031;-86
2023/06/09 19:31:55;;;;;;;5.18;2.20;;;19.30;99.90;;;;;;5108201;28;20484;-85
2023/06/09 19:34:26;;;;;;;3.92;1.70;;;19.10;99.90;;;;;;5092944;28;20490;-86
2023/06/09 19:36:54;;;;;;;7.88;2.88;;;19.10;99.90;;;;;;5092698;28;20090;-87
2023/06/09 19:39:20;;;;;;;6.57;2.13;;;18.90;99.90;;;;;;5092474;28;20097;-86
2023/06/09 19:41:46;;;;;;;6.68;2.38;;;18.80;99.90;;;;;;5093539;28;20434;-86
2023/06/09 19:44:15;;;;;;;5.82;2.13;;;18.70;99.90;;;;;;5093876;28;20074;-84
2023/06/09 19:46:46;;;;;;;4.97;2.47;;;18.70;99.90;;;;;;5091967;28;20050;-87
2023/06/09 19:49:14;;;;;;;6.13;2.30;;;18.60;99.90;;;;;;5098880;28;20093;-84
2023/06/09 19:51:42;;;;;;;7.75;2.35;;;18.50;99.90;;;;;;5082472;28;20047;-87
2023/06/09 19:54:08;;;;;;;9.23;3.83;;;18.50;99.90;;;;;;5110292;28;20031;-85
2023/06/09 19:56:42;;;;;;;4.35;1.83;;;18.40;99.90;;;;;;5094784;28;20044;-87
2023/06/09 19:59:10;;;;;;;5.80;2.25;;;18.30;99.90;;;;;;5112990;28;20100;-88
2023/06/09 20:01:37;;;;;;;8.63;2.67;;;18.30;99.90;;;;;;5094232;28;20052;-88
2023/06/09 20:04:05;;;;;;;6.15;2.35;;;18.20;99.90;;;;;;5092810;28;20047;-88
2023/06/09 20:06:31;;;;;;;8.93;2.67;;;18.20;99.90;;;;;;5108385;28;20046;-89
2023/06/09 20:08:58;;;;;;;5.78;2.47;;;18.10;99.90;;;;;;5093599;28;20052;-81
2023/06/09 20:11:24;;;;;;;5.88;2.25;;;18.10;99.90;;;;;;5093393;28;20043;-84
2023/06/09 20:13:51;;;;;;;6.80;2.03;;;18.00;99.90;;;;;;5085624;28;20081;-84
2023/06/09 20:16:17;;;;;;;5.18;2.40;;;18.00;99.90;;;;;;5099233;28;20408;-85
2023/06/09 20:18:45;;;;;;;5.85;2.28;;;17.90;99.90;;;;;;5111853;28;20035;-84
2023/06/09 20:21:26;;;;;;;5.40;2.15;;;17.90;99.90;;;;;;5112987;28;20398;-84
2023/06/09 20:23:59;;;;;;;5.80;2.15;;;17.80;99.90;;;;;;5107033;28;20044;-85
2023/06/09 20:26:50;;;;;;;6.40;2.55;;;17.70;99.90;;;;;;5092606;28;20123;-85
2023/06/09 20:29:36;;;;;;;5.15;2.00;;;17.70;99.90;;;;;;5092627;28;20048;-85
2023/06/09 20:32:14;;;;;;;3.60;2.00;;;17.60;99.90;;;;;;5093463;28;20040;-84
2023/06/09 20:45:46;;;;;;;5.97;2.30;;;17.20;99.90;;;;;;5096269;28;20050;-84
2023/06/09 20:48:18;;;;;;;6.30;2.35;;;17.10;99.90;;;;;;5091872;28;20115;-86
2023/06/09 20:50:45;;;;;;;3.22;1.83;;;17.10;99.90;;;;;;5093966;28;20048;-88
2023/06/09 20:53:14;;;;;;;8.63;2.65;;;17.10;99.90;;;;;;5077803;28;20089;-85
2023/06/09 20:55:41;;;;;;;5.90;2.53;;;17.00;99.90;;;;;;5113043;28;20522;-85
2023/06/09 20:58:09;;;;;;;4.60;2.15;;;16.90;99.90;;;;;;5112038;28;20031;-85
2023/06/09 21:00:38;;;;;;;5.78;1.98;;;16.90;99.90;;;;;;5103046;28;20039;-85
2023/06/09 21:03:05;;;;;;;8.18;3.33;;;16.80;99.90;;;;;;5093924;28;20046;-90
2023/06/09 21:05:33;;;;;;;4.45;2.10;;;16.70;99.90;;;;;;5079987;28;20079;-85
2023/06/09 21:08:10;;;;;;;6.93;2.15;;;16.70;99.90;;;;;;5090099;28;20055;-90
2023/06/09 21:10:47;;;;;;;5.45;2.13;;;16.60;99.90;;;;;;5087483;28;20071;-85
2023/06/09 21:13:15;;;;;;;4.68;2.30;;;16.60;99.90;;;;;;5082496;28;20105;-86
2023/06/09 21:15:42;;;;;;;5.85;2.13;;;16.60;99.90;;;;;;5077894;28;20040;-86